ADR9515 EPWA-LJLJ
Flight info
| Callsign | ADR9515 |
|---|---|
| Flight time | 1h 30m |
| Altitude | 34000 |
| Route | EVINA N744 TUSIN DCT MIKOV DCT RADLY DCT OFROZ |
| Aircraft | CRJ7/M-SDFGIRWY/S |
Departure
| Time | 2026-04-20 13:38 |
|---|---|
| Airport | Warsaw Chopin Airport (EPWA) |
Arrival
| Time | 2026-04-20 15:09 |
|---|---|
| Airport | Ljubljana Jože Pučnik Airport (LJLJ) |
| Time | Latitude | Longitude | Altitude | Speed | Heading |
|---|---|---|---|---|---|
| 2026-04-20 13:17 | 52.16899 | 20.96937 | 337 ft | 0 kts | 276° |
| 2026-04-20 13:30 | 52.16899 | 20.96938 | 337 ft | 0 kts | 276° |
| 2026-04-20 13:32 | 52.16899 | 20.96936 | 337 ft | 2 kts | 276° |
| 2026-04-20 13:32 | 52.16911 | 20.96849 | 336 ft | 15 kts | 302° |
| 2026-04-20 13:32 | 52.17025 | 20.96722 | 337 ft | 14 kts | 328° |
| 2026-04-20 13:32 | 52.17048 | 20.96699 | 334 ft | 4 kts | 329° |
| 2026-04-20 13:33 | 52.17111 | 20.96641 | 336 ft | 12 kts | 331° |
| 2026-04-20 13:33 | 52.17200 | 20.96564 | 337 ft | 15 kts | 332° |
| 2026-04-20 13:33 | 52.17303 | 20.96474 | 334 ft | 22 kts | 332° |
| 2026-04-20 13:33 | 52.17443 | 20.96351 | 334 ft | 23 kts | 332° |
| 2026-04-20 13:34 | 52.17570 | 20.96236 | 337 ft | 15 kts | 314° |
| 2026-04-20 13:34 | 52.17576 | 20.96105 | 336 ft | 10 kts | 238° |
| 2026-04-20 13:34 | 52.17560 | 20.96077 | 335 ft | 0 kts | 215° |
| 2026-04-20 13:34 | 52.17549 | 20.96066 | 337 ft | 4 kts | 210° |
| 2026-04-20 13:35 | 52.17505 | 20.96028 | 337 ft | 10 kts | 207° |
| 2026-04-20 13:35 | 52.17428 | 20.95977 | 336 ft | 14 kts | 181° |
| 2026-04-20 13:35 | 52.17373 | 20.96011 | 336 ft | 1 kts | 151° |
| 2026-04-20 13:35 | 52.17371 | 20.96013 | 336 ft | 0 kts | 151° |
| 2026-04-20 13:37 | 52.17371 | 20.96014 | 336 ft | 0 kts | 151° |
| 2026-04-20 13:37 | 52.17368 | 20.96016 | 336 ft | 0 kts | 151° |
| 2026-04-20 13:37 | 52.17357 | 20.96026 | 335 ft | 9 kts | 151° |
| 2026-04-20 13:38 | 52.17115 | 20.96235 | 335 ft | 76 kts | 153° |
| 2026-04-20 13:38 | 52.16439 | 20.96833 | 335 ft | 141 kts | 150° |
| 2026-04-20 13:38 | 52.15472 | 20.97656 | 695 ft | 167 kts | 148° |
| 2026-04-20 13:38 | 52.14428 | 20.98542 | 1568 ft | 167 kts | 146° |
| 2026-04-20 13:39 | 52.13381 | 20.99433 | 2406 ft | 174 kts | 147° |
| 2026-04-20 13:39 | 52.12254 | 21.00306 | 3115 ft | 186 kts | 156° |
| 2026-04-20 13:39 | 52.10945 | 21.00550 | 3922 ft | 194 kts | 181° |
| 2026-04-20 13:39 | 52.09666 | 20.99792 | 4672 ft | 204 kts | 210° |
| 2026-04-20 13:40 | 52.08610 | 20.98201 | 5291 ft | 213 kts | 226° |
| 2026-04-20 13:40 | 52.07648 | 20.96337 | 6092 ft | 212 kts | 227° |
| 2026-04-20 13:40 | 52.06600 | 20.94582 | 6483 ft | 237 kts | 217° |
| 2026-04-20 13:40 | 52.05090 | 20.93401 | 7139 ft | 239 kts | 193° |
| 2026-04-20 13:41 | 52.03605 | 20.92318 | 8256 ft | 235 kts | 220° |
| 2026-04-20 13:41 | 52.02726 | 20.90082 | 9151 ft | 239 kts | 249° |
| 2026-04-20 13:41 | 52.02171 | 20.87514 | 9998 ft | 243 kts | 251° |
| 2026-04-20 13:41 | 52.01635 | 20.84916 | 10848 ft | 243 kts | 252° |
| 2026-04-20 13:42 | 52.01088 | 20.82313 | 11670 ft | 244 kts | 251° |
| 2026-04-20 13:42 | 51.99850 | 20.77179 | 13346 ft | 245 kts | 249° |
| 2026-04-20 13:42 | 51.99200 | 20.74618 | 14129 ft | 246 kts | 249° |
| 2026-04-20 13:43 | 51.98542 | 20.72055 | 14818 ft | 247 kts | 249° |
| 2026-04-20 13:43 | 51.97885 | 20.69431 | 15505 ft | 249 kts | 250° |
| 2026-04-20 13:43 | 51.97247 | 20.66854 | 16157 ft | 251 kts | 250° |
| 2026-04-20 13:43 | 51.96592 | 20.64184 | 16836 ft | 252 kts | 250° |
| 2026-04-20 13:44 | 51.95943 | 20.61552 | 17332 ft | 262 kts | 251° |
| 2026-04-20 13:44 | 51.95215 | 20.58750 | 17642 ft | 278 kts | 241° |
| 2026-04-20 13:44 | 51.93826 | 20.56516 | 18040 ft | 295 kts | 212° |
| 2026-04-20 13:44 | 51.91892 | 20.55110 | 18289 ft | 315 kts | 200° |
| 2026-04-20 13:45 | 51.89765 | 20.53979 | 18639 ft | 327 kts | 199° |
| 2026-04-20 13:45 | 51.87587 | 20.52834 | 19214 ft | 331 kts | 200° |
| 2026-04-20 13:45 | 51.85388 | 20.51664 | 19808 ft | 335 kts | 200° |
| 2026-04-20 13:45 | 51.83175 | 20.50432 | 20376 ft | 338 kts | 201° |
| 2026-04-20 13:46 | 51.80926 | 20.49114 | 20955 ft | 341 kts | 201° |
| 2026-04-20 13:46 | 51.78684 | 20.47793 | 21494 ft | 345 kts | 201° |
| 2026-04-20 13:46 | 51.76422 | 20.46456 | 22034 ft | 347 kts | 201° |
| 2026-04-20 13:46 | 51.74144 | 20.45109 | 22554 ft | 351 kts | 201° |
| 2026-04-20 13:47 | 51.71843 | 20.43756 | 23070 ft | 354 kts | 200° |
| 2026-04-20 13:47 | 51.69522 | 20.42389 | 23577 ft | 356 kts | 200° |
| 2026-04-20 13:47 | 51.67186 | 20.41014 | 23994 ft | 359 kts | 200° |
| 2026-04-20 13:47 | 51.64806 | 20.39762 | 24322 ft | 365 kts | 193° |
| 2026-04-20 13:48 | 51.62242 | 20.39176 | 24334 ft | 379 kts | 185° |
| 2026-04-20 13:48 | 51.59554 | 20.38914 | 24353 ft | 394 kts | 183° |
| 2026-04-20 13:48 | 51.56787 | 20.38679 | 24576 ft | 401 kts | 183° |
| 2026-04-20 13:48 | 51.54941 | 20.38485 | 24856 ft | 402 kts | 184° |
| 2026-04-20 13:49 | 51.52149 | 20.38092 | 25253 ft | 403 kts | 186° |
| 2026-04-20 13:49 | 51.49353 | 20.37651 | 25648 ft | 405 kts | 185° |
| 2026-04-20 13:49 | 51.46541 | 20.37227 | 26051 ft | 406 kts | 185° |
| 2026-04-20 13:49 | 51.43719 | 20.36804 | 26413 ft | 408 kts | 186° |
| 2026-04-20 13:50 | 51.40896 | 20.36235 | 26757 ft | 410 kts | 194° |
| 2026-04-20 13:50 | 51.38247 | 20.34560 | 27095 ft | 411 kts | 207° |
| 2026-04-20 13:50 | 51.35730 | 20.32368 | 27440 ft | 412 kts | 211° |
| 2026-04-20 13:50 | 51.33361 | 20.29775 | 27766 ft | 414 kts | 217° |
| 2026-04-20 13:51 | 51.31095 | 20.26929 | 28085 ft | 415 kts | 219° |
| 2026-04-20 13:51 | 51.28832 | 20.24038 | 28396 ft | 416 kts | 219° |
| 2026-04-20 13:51 | 51.26554 | 20.21170 | 28692 ft | 418 kts | 217° |
| 2026-04-20 13:51 | 51.24232 | 20.18368 | 28982 ft | 419 kts | 217° |
| 2026-04-20 13:52 | 51.21896 | 20.15570 | 29280 ft | 420 kts | 217° |
| 2026-04-20 13:52 | 51.19555 | 20.12764 | 29560 ft | 421 kts | 217° |
| 2026-04-20 13:52 | 51.17210 | 20.09957 | 29824 ft | 422 kts | 217° |
| 2026-04-20 13:52 | 51.14857 | 20.07134 | 30048 ft | 424 kts | 217° |
| 2026-04-20 13:53 | 51.12494 | 20.04309 | 30243 ft | 426 kts | 216° |
| 2026-04-20 13:53 | 51.10118 | 20.01473 | 30417 ft | 428 kts | 216° |
| 2026-04-20 13:53 | 51.07726 | 19.98644 | 30616 ft | 429 kts | 216° |
| 2026-04-20 13:53 | 51.05327 | 19.95804 | 30783 ft | 431 kts | 216° |
| 2026-04-20 13:54 | 51.02922 | 19.92950 | 30951 ft | 433 kts | 216° |
| 2026-04-20 13:54 | 51.00504 | 19.90082 | 31120 ft | 434 kts | 216° |
| 2026-04-20 13:54 | 50.98080 | 19.87219 | 31300 ft | 435 kts | 216° |
| 2026-04-20 13:54 | 50.95645 | 19.84341 | 31456 ft | 437 kts | 216° |
| 2026-04-20 13:55 | 50.93200 | 19.81454 | 31616 ft | 438 kts | 216° |
| 2026-04-20 13:55 | 50.90750 | 19.78564 | 31730 ft | 441 kts | 217° |
| 2026-04-20 13:55 | 50.88289 | 19.75669 | 31973 ft | 441 kts | 217° |
| 2026-04-20 13:55 | 50.85827 | 19.72775 | 32208 ft | 441 kts | 217° |
| 2026-04-20 13:56 | 50.83365 | 19.69886 | 32415 ft | 441 kts | 217° |
| 2026-04-20 13:56 | 50.80897 | 19.66993 | 32617 ft | 441 kts | 217° |
| 2026-04-20 13:56 | 50.78433 | 19.64105 | 32826 ft | 442 kts | 217° |
| 2026-04-20 13:56 | 50.75962 | 19.61216 | 33008 ft | 442 kts | 217° |
| 2026-04-20 13:57 | 50.73489 | 19.58331 | 33243 ft | 442 kts | 217° |
| 2026-04-20 13:57 | 50.71011 | 19.55440 | 33437 ft | 442 kts | 217° |
| 2026-04-20 13:57 | 50.68535 | 19.52558 | 33632 ft | 443 kts | 217° |
| 2026-04-20 13:57 | 50.66058 | 19.49676 | 33841 ft | 443 kts | 217° |
| 2026-04-20 13:58 | 50.61065 | 19.43882 | 33973 ft | 449 kts | 217° |
| 2026-04-20 13:58 | 50.55985 | 19.38000 | 33998 ft | 457 kts | 217° |
| 2026-04-20 13:59 | 50.50814 | 19.32032 | 34005 ft | 465 kts | 217° |
| 2026-04-20 13:59 | 50.45561 | 19.25985 | 34005 ft | 471 kts | 217° |
| 2026-04-20 14:00 | 50.40244 | 19.19880 | 33998 ft | 476 kts | 217° |
| 2026-04-20 14:00 | 50.34930 | 19.13807 | 33998 ft | 470 kts | 217° |
| 2026-04-20 14:01 | 50.29713 | 19.07846 | 33993 ft | 455 kts | 217° |
| 2026-04-20 14:01 | 50.24700 | 19.02142 | 33983 ft | 437 kts | 218° |
| 2026-04-20 14:02 | 50.19862 | 18.96647 | 33983 ft | 423 kts | 218° |
| 2026-04-20 14:02 | 50.15155 | 18.91319 | 33978 ft | 414 kts | 218° |
| 2026-04-20 14:03 | 50.10521 | 18.86083 | 33988 ft | 410 kts | 218° |
| 2026-04-20 14:03 | 50.05899 | 18.80875 | 33994 ft | 411 kts | 218° |
| 2026-04-20 14:04 | 50.01247 | 18.75645 | 33996 ft | 414 kts | 218° |
| 2026-04-20 14:04 | 49.96554 | 18.70385 | 34003 ft | 418 kts | 218° |
| 2026-04-20 14:05 | 49.91817 | 18.65085 | 34001 ft | 421 kts | 218° |
| 2026-04-20 14:05 | 49.87050 | 18.59750 | 33994 ft | 424 kts | 219° |
| 2026-04-20 14:06 | 49.82760 | 18.53521 | 34007 ft | 423 kts | 229° |
| 2026-04-20 14:06 | 49.78987 | 18.46506 | 33998 ft | 425 kts | 234° |
| 2026-04-20 14:07 | 49.75334 | 18.39299 | 33996 ft | 427 kts | 233° |
| 2026-04-20 14:07 | 49.71566 | 18.32166 | 33995 ft | 429 kts | 232° |
| 2026-04-20 14:08 | 49.67776 | 18.25013 | 33997 ft | 431 kts | 232° |
| 2026-04-20 14:08 | 49.63962 | 18.17843 | 33998 ft | 433 kts | 232° |
| 2026-04-20 14:09 | 49.60131 | 18.10657 | 33994 ft | 434 kts | 232° |
| 2026-04-20 14:09 | 49.56284 | 18.03462 | 33990 ft | 436 kts | 232° |
| 2026-04-20 14:10 | 49.52420 | 17.96252 | 33984 ft | 437 kts | 232° |
| 2026-04-20 14:10 | 49.48543 | 17.89043 | 33986 ft | 438 kts | 232° |
| 2026-04-20 14:11 | 49.44653 | 17.81826 | 33985 ft | 439 kts | 232° |
| 2026-04-20 14:11 | 49.40746 | 17.74596 | 33980 ft | 440 kts | 232° |
| 2026-04-20 14:12 | 49.36828 | 17.67369 | 33992 ft | 441 kts | 232° |
| 2026-04-20 14:12 | 49.32907 | 17.60156 | 33990 ft | 439 kts | 233° |
| 2026-04-20 14:13 | 49.29002 | 17.52993 | 33985 ft | 437 kts | 233° |
| 2026-04-20 14:13 | 49.25112 | 17.45871 | 33982 ft | 435 kts | 233° |
| 2026-04-20 14:14 | 49.21236 | 17.38796 | 33980 ft | 433 kts | 233° |
| 2026-04-20 14:14 | 49.17366 | 17.31757 | 33992 ft | 431 kts | 233° |
| 2026-04-20 14:15 | 49.13513 | 17.24760 | 33985 ft | 430 kts | 233° |
| 2026-04-20 14:15 | 49.09673 | 17.17808 | 33981 ft | 427 kts | 233° |
| 2026-04-20 14:16 | 49.05853 | 17.10912 | 33993 ft | 424 kts | 233° |
| 2026-04-20 14:16 | 49.02048 | 17.04062 | 33993 ft | 422 kts | 233° |
| 2026-04-20 14:17 | 48.98259 | 16.97257 | 33993 ft | 420 kts | 233° |
| 2026-04-20 14:17 | 48.94478 | 16.90477 | 33991 ft | 420 kts | 233° |
| 2026-04-20 14:18 | 48.90688 | 16.83706 | 33997 ft | 420 kts | 233° |
| 2026-04-20 14:18 | 48.86897 | 16.76949 | 33991 ft | 420 kts | 233° |
| 2026-04-20 14:19 | 48.83108 | 16.70212 | 33992 ft | 420 kts | 233° |
| 2026-04-20 14:19 | 48.78819 | 16.64174 | 34000 ft | 427 kts | 219° |
| 2026-04-20 14:20 | 48.73859 | 16.59214 | 34001 ft | 427 kts | 217° |
| 2026-04-20 14:20 | 48.68555 | 16.55017 | 34003 ft | 433 kts | 208° |
| 2026-04-20 14:21 | 48.63004 | 16.51463 | 34003 ft | 433 kts | 208° |
| 2026-04-20 14:21 | 48.57517 | 16.47747 | 33997 ft | 432 kts | 210° |
| 2026-04-20 14:22 | 48.52049 | 16.44003 | 33997 ft | 431 kts | 210° |
| 2026-04-20 14:22 | 48.46581 | 16.40273 | 33995 ft | 431 kts | 210° |
| 2026-04-20 14:23 | 48.41116 | 16.36555 | 33994 ft | 431 kts | 210° |
| 2026-04-20 14:23 | 48.35660 | 16.32848 | 33992 ft | 430 kts | 210° |
| 2026-04-20 14:24 | 48.30207 | 16.29155 | 33982 ft | 430 kts | 210° |
| 2026-04-20 14:24 | 48.24760 | 16.25472 | 33982 ft | 429 kts | 211° |
| 2026-04-20 14:25 | 48.19327 | 16.21812 | 33987 ft | 428 kts | 211° |
| 2026-04-20 14:25 | 48.13897 | 16.18157 | 33995 ft | 428 kts | 211° |
| 2026-04-20 14:26 | 48.08465 | 16.14510 | 33996 ft | 428 kts | 211° |
| 2026-04-20 14:26 | 48.03031 | 16.10873 | 33990 ft | 428 kts | 211° |
| 2026-04-20 14:27 | 47.97602 | 16.07245 | 33991 ft | 428 kts | 211° |
| 2026-04-20 14:27 | 47.92169 | 16.03622 | 33982 ft | 428 kts | 212° |
| 2026-04-20 14:28 | 47.86742 | 16.00016 | 33998 ft | 427 kts | 212° |
| 2026-04-20 14:28 | 47.82232 | 15.97021 | 33998 ft | 427 kts | 212° |
| 2026-04-20 14:29 | 47.76800 | 15.93425 | 33996 ft | 427 kts | 212° |
| 2026-04-20 14:29 | 47.71373 | 15.89838 | 33987 ft | 427 kts | 212° |
| 2026-04-20 14:30 | 47.65945 | 15.86262 | 33977 ft | 426 kts | 212° |
| 2026-04-20 14:30 | 47.60526 | 15.82699 | 33992 ft | 426 kts | 213° |
| 2026-04-20 14:31 | 47.55113 | 15.79149 | 33963 ft | 424 kts | 213° |
| 2026-04-20 14:31 | 47.49707 | 15.75602 | 33598 ft | 430 kts | 213° |
| 2026-04-20 14:32 | 47.46992 | 15.73835 | 33076 ft | 422 kts | 214° |
| 2026-04-20 14:32 | 47.44334 | 15.72105 | 32553 ft | 414 kts | 214° |
| 2026-04-20 14:32 | 47.41723 | 15.70404 | 32070 ft | 407 kts | 215° |
| 2026-04-20 14:32 | 47.39159 | 15.68738 | 31541 ft | 400 kts | 216° |
| 2026-04-20 14:33 | 47.36631 | 15.67093 | 31016 ft | 393 kts | 216° |
| 2026-04-20 14:33 | 47.34145 | 15.65481 | 30516 ft | 388 kts | 217° |
| 2026-04-20 14:33 | 47.31694 | 15.63893 | 30014 ft | 382 kts | 217° |
| 2026-04-20 14:33 | 47.29277 | 15.62319 | 29428 ft | 377 kts | 217° |
| 2026-04-20 14:34 | 47.26885 | 15.60773 | 28813 ft | 373 kts | 216° |
| 2026-04-20 14:34 | 47.24528 | 15.59246 | 28268 ft | 368 kts | 216° |
| 2026-04-20 14:34 | 47.22196 | 15.57738 | 27695 ft | 364 kts | 216° |
| 2026-04-20 14:34 | 47.19886 | 15.56244 | 27164 ft | 361 kts | 215° |
| 2026-04-20 14:35 | 47.17600 | 15.54768 | 26629 ft | 358 kts | 215° |
| 2026-04-20 14:35 | 47.15329 | 15.53302 | 26107 ft | 355 kts | 215° |
| 2026-04-20 14:35 | 47.13080 | 15.51848 | 25602 ft | 352 kts | 214° |
| 2026-04-20 14:35 | 47.10842 | 15.50408 | 25136 ft | 350 kts | 214° |
| 2026-04-20 14:36 | 47.08618 | 15.48981 | 24665 ft | 348 kts | 214° |
| 2026-04-20 14:36 | 47.06407 | 15.47562 | 24217 ft | 346 kts | 213° |
| 2026-04-20 14:36 | 47.04210 | 15.46148 | 23769 ft | 344 kts | 213° |
| 2026-04-20 14:36 | 47.02024 | 15.44743 | 23275 ft | 343 kts | 213° |
| 2026-04-20 14:37 | 46.99842 | 15.43344 | 22766 ft | 342 kts | 212° |
| 2026-04-20 14:37 | 46.97670 | 15.41952 | 22223 ft | 338 kts | 212° |
| 2026-04-20 14:37 | 46.95546 | 15.40598 | 21657 ft | 328 kts | 212° |
| 2026-04-20 14:37 | 46.93481 | 15.39279 | 21114 ft | 320 kts | 212° |
| 2026-04-20 14:38 | 46.91464 | 15.37990 | 20562 ft | 313 kts | 211° |
| 2026-04-20 14:38 | 46.89492 | 15.36731 | 20048 ft | 307 kts | 211° |
| 2026-04-20 14:38 | 46.87550 | 15.35490 | 19542 ft | 302 kts | 211° |
| 2026-04-20 14:38 | 46.85647 | 15.34245 | 19035 ft | 298 kts | 211° |
| 2026-04-20 14:39 | 46.83767 | 15.33003 | 18543 ft | 294 kts | 211° |
| 2026-04-20 14:39 | 46.81908 | 15.31791 | 18063 ft | 291 kts | 210° |
| 2026-04-20 14:39 | 46.80067 | 15.30619 | 17563 ft | 287 kts | 210° |
| 2026-04-20 14:39 | 46.78249 | 15.29462 | 17066 ft | 284 kts | 210° |
| 2026-04-20 14:40 | 46.76430 | 15.28305 | 16705 ft | 288 kts | 210° |
| 2026-04-20 14:40 | 46.74556 | 15.27113 | 16407 ft | 299 kts | 210° |
| 2026-04-20 14:40 | 46.72620 | 15.25871 | 16115 ft | 308 kts | 209° |
| 2026-04-20 14:40 | 46.70632 | 15.24599 | 15775 ft | 315 kts | 209° |
| 2026-04-20 14:41 | 46.68623 | 15.23324 | 15434 ft | 316 kts | 208° |
| 2026-04-20 14:41 | 46.66595 | 15.22038 | 15150 ft | 318 kts | 208° |
| 2026-04-20 14:41 | 46.64566 | 15.20760 | 14778 ft | 318 kts | 208° |
| 2026-04-20 14:41 | 46.62519 | 15.19513 | 14365 ft | 319 kts | 207° |
| 2026-04-20 14:42 | 46.60473 | 15.18267 | 13984 ft | 319 kts | 207° |
| 2026-04-20 14:42 | 46.58429 | 15.17022 | 13577 ft | 319 kts | 207° |
| 2026-04-20 14:42 | 46.56384 | 15.15775 | 13157 ft | 318 kts | 207° |
| 2026-04-20 14:42 | 46.54351 | 15.14534 | 12713 ft | 316 kts | 207° |
| 2026-04-20 14:43 | 46.52338 | 15.13309 | 12273 ft | 313 kts | 207° |
| 2026-04-20 14:43 | 46.50332 | 15.12090 | 11870 ft | 311 kts | 206° |
| 2026-04-20 14:43 | 46.48339 | 15.10879 | 11463 ft | 310 kts | 206° |
| 2026-04-20 14:43 | 46.46355 | 15.09673 | 11059 ft | 308 kts | 206° |
| 2026-04-20 14:44 | 46.44386 | 15.08477 | 10648 ft | 306 kts | 206° |
| 2026-04-20 14:44 | 46.42430 | 15.07293 | 10252 ft | 304 kts | 206° |
| 2026-04-20 14:44 | 46.40486 | 15.06115 | 9889 ft | 302 kts | 205° |
| 2026-04-20 14:44 | 46.38550 | 15.04944 | 9538 ft | 299 kts | 205° |
| 2026-04-20 14:45 | 46.36642 | 15.03780 | 9165 ft | 296 kts | 205° |
| 2026-04-20 14:45 | 46.34752 | 15.02636 | 8799 ft | 293 kts | 205° |
| 2026-04-20 14:45 | 46.32886 | 15.01509 | 8433 ft | 289 kts | 205° |
| 2026-04-20 14:45 | 46.31050 | 15.00356 | 8064 ft | 285 kts | 208° |
| 2026-04-20 14:46 | 46.29363 | 14.98910 | 7705 ft | 280 kts | 216° |
| 2026-04-20 14:46 | 46.27795 | 14.97308 | 7334 ft | 270 kts | 219° |
| 2026-04-20 14:46 | 46.26313 | 14.95732 | 6909 ft | 259 kts | 219° |
| 2026-04-20 14:46 | 46.24889 | 14.94225 | 6559 ft | 250 kts | 218° |
| 2026-04-20 14:47 | 46.23513 | 14.92765 | 6225 ft | 242 kts | 218° |
| 2026-04-20 14:47 | 46.22153 | 14.91353 | 5970 ft | 239 kts | 217° |
| 2026-04-20 14:47 | 46.21692 | 14.90888 | 5881 ft | 238 kts | 217° |
| 2026-04-20 14:48 | 46.19776 | 14.88971 | 5511 ft | 234 kts | 217° |
| 2026-04-20 14:48 | 46.18460 | 14.87642 | 5239 ft | 231 kts | 216° |
| 2026-04-20 14:48 | 46.17148 | 14.86316 | 4970 ft | 229 kts | 216° |
| 2026-04-20 14:48 | 46.15849 | 14.84998 | 4723 ft | 227 kts | 216° |
| 2026-04-20 14:49 | 46.14558 | 14.83698 | 4476 ft | 225 kts | 216° |
| 2026-04-20 14:49 | 46.13279 | 14.82412 | 4230 ft | 223 kts | 216° |
| 2026-04-20 14:49 | 46.12029 | 14.81153 | 4080 ft | 215 kts | 216° |
| 2026-04-20 14:49 | 46.10838 | 14.79956 | 4037 ft | 205 kts | 215° |
| 2026-04-20 14:50 | 46.09608 | 14.78720 | 4025 ft | 225 kts | 215° |
| 2026-04-20 14:50 | 46.08270 | 14.77377 | 4035 ft | 244 kts | 215° |
| 2026-04-20 14:50 | 46.06820 | 14.75891 | 4048 ft | 268 kts | 224° |
| 2026-04-20 14:50 | 46.05795 | 14.73592 | 4164 ft | 275 kts | 251° |
| 2026-04-20 14:51 | 46.05595 | 14.70979 | 4007 ft | 261 kts | 276° |
| 2026-04-20 14:51 | 46.06245 | 14.68632 | 3959 ft | 251 kts | 304° |
| 2026-04-20 14:51 | 46.07452 | 14.66958 | 4179 ft | 214 kts | 325° |
| 2026-04-20 14:51 | 46.08685 | 14.65998 | 4500 ft | 192 kts | 332° |
| 2026-04-20 14:52 | 46.09879 | 14.65210 | 4638 ft | 190 kts | 335° |
| 2026-04-20 14:52 | 46.11119 | 14.64510 | 4404 ft | 196 kts | 337° |
| 2026-04-20 14:52 | 46.12376 | 14.63822 | 4230 ft | 189 kts | 339° |
| 2026-04-20 14:52 | 46.13573 | 14.63270 | 4102 ft | 167 kts | 329° |
| 2026-04-20 14:53 | 46.14204 | 14.62081 | 4022 ft | 140 kts | 284° |
| 2026-04-20 14:53 | 46.14447 | 14.60806 | 3866 ft | 136 kts | 283° |
| 2026-04-20 14:53 | 46.14697 | 14.59429 | 3663 ft | 144 kts | 283° |
| 2026-04-20 14:53 | 46.14949 | 14.58002 | 3443 ft | 146 kts | 283° |
| 2026-04-20 14:54 | 46.15262 | 14.56683 | 3275 ft | 136 kts | 300° |
| 2026-04-20 14:54 | 46.15965 | 14.55494 | 3323 ft | 179 kts | 314° |
| 2026-04-20 14:54 | 46.16959 | 14.54113 | 3913 ft | 209 kts | 317° |
| 2026-04-20 14:54 | 46.18049 | 14.52751 | 4854 ft | 212 kts | 313° |
| 2026-04-20 14:55 | 46.18884 | 14.50753 | 4809 ft | 250 kts | 287° |
| 2026-04-20 14:55 | 46.19571 | 14.48328 | 4855 ft | 274 kts | 302° |
| 2026-04-20 14:55 | 46.20784 | 14.46061 | 4844 ft | 295 kts | 308° |
| 2026-04-20 14:55 | 46.22139 | 14.43722 | 4873 ft | 305 kts | 308° |
| 2026-04-20 14:56 | 46.23464 | 14.41461 | 4868 ft | 285 kts | 309° |
| 2026-04-20 14:56 | 46.24415 | 14.39096 | 4914 ft | 264 kts | 283° |
| 2026-04-20 14:56 | 46.24428 | 14.36538 | 5005 ft | 251 kts | 253° |
| 2026-04-20 14:56 | 46.23551 | 14.34411 | 5066 ft | 249 kts | 223° |
| 2026-04-20 14:57 | 46.22037 | 14.33243 | 5049 ft | 250 kts | 193° |
| 2026-04-20 14:57 | 46.20356 | 14.33357 | 5056 ft | 239 kts | 160° |
| 2026-04-20 14:57 | 46.19044 | 14.34661 | 5424 ft | 224 kts | 135° |
| 2026-04-20 14:57 | 46.18014 | 14.36250 | 5728 ft | 212 kts | 133° |
| 2026-04-20 14:58 | 46.17012 | 14.37876 | 5880 ft | 225 kts | 133° |
| 2026-04-20 14:58 | 46.15945 | 14.39636 | 5970 ft | 241 kts | 132° |
| 2026-04-20 14:58 | 46.14813 | 14.41541 | 5993 ft | 258 kts | 132° |
| 2026-04-20 14:58 | 46.13420 | 14.43234 | 6014 ft | 268 kts | 155° |
| 2026-04-20 14:59 | 46.11696 | 14.44286 | 6026 ft | 271 kts | 162° |
| 2026-04-20 14:59 | 46.09880 | 14.45093 | 6018 ft | 275 kts | 167° |
| 2026-04-20 14:59 | 46.08011 | 14.45782 | 6017 ft | 279 kts | 168° |
| 2026-04-20 14:59 | 46.06117 | 14.46436 | 6020 ft | 279 kts | 169° |
| 2026-04-20 15:00 | 46.04267 | 14.47053 | 6006 ft | 266 kts | 169° |
| 2026-04-20 15:00 | 46.02522 | 14.47632 | 6000 ft | 255 kts | 169° |
| 2026-04-20 15:00 | 46.00844 | 14.48289 | 5985 ft | 247 kts | 157° |
| 2026-04-20 15:00 | 45.99562 | 14.49838 | 5975 ft | 241 kts | 124° |
| 2026-04-20 15:01 | 45.99055 | 14.52062 | 5984 ft | 233 kts | 90° |
| 2026-04-20 15:01 | 45.99338 | 14.54317 | 5991 ft | 223 kts | 72° |
| 2026-04-20 15:01 | 45.99803 | 14.56464 | 5736 ft | 228 kts | 70° |
| 2026-04-20 15:01 | 46.00316 | 14.58627 | 5436 ft | 235 kts | 69° |
| 2026-04-20 15:02 | 46.00877 | 14.60870 | 5127 ft | 240 kts | 69° |
| 2026-04-20 15:02 | 46.01472 | 14.63164 | 4825 ft | 244 kts | 68° |
| 2026-04-20 15:02 | 46.02078 | 14.65455 | 4531 ft | 246 kts | 68° |
| 2026-04-20 15:02 | 46.02783 | 14.67712 | 4288 ft | 248 kts | 63° |
| 2026-04-20 15:03 | 46.03592 | 14.69851 | 4208 ft | 244 kts | 52° |
| 2026-04-20 15:03 | 46.04908 | 14.71321 | 4146 ft | 235 kts | 19° |
| 2026-04-20 15:03 | 46.06433 | 14.71939 | 4072 ft | 227 kts | 12° |
| 2026-04-20 15:03 | 46.07942 | 14.72413 | 4018 ft | 217 kts | 6° |
| 2026-04-20 15:04 | 46.09363 | 14.72112 | 4001 ft | 203 kts | 329° |
| 2026-04-20 15:04 | 46.10308 | 14.70748 | 4010 ft | 188 kts | 300° |
| 2026-04-20 15:04 | 46.10968 | 14.69233 | 4058 ft | 169 kts | 299° |
| 2026-04-20 15:04 | 46.11547 | 14.67862 | 4065 ft | 152 kts | 298° |
| 2026-04-20 15:05 | 46.12094 | 14.66537 | 4072 ft | 159 kts | 298° |
| 2026-04-20 15:05 | 46.12670 | 14.65148 | 4050 ft | 163 kts | 299° |
| 2026-04-20 15:05 | 46.13271 | 14.63742 | 4056 ft | 167 kts | 300° |
| 2026-04-20 15:05 | 46.13903 | 14.62302 | 3829 ft | 173 kts | 303° |
| 2026-04-20 15:06 | 46.14617 | 14.60892 | 3593 ft | 174 kts | 305° |
| 2026-04-20 15:06 | 46.15318 | 14.59520 | 3375 ft | 164 kts | 305° |
| 2026-04-20 15:06 | 46.15954 | 14.58280 | 3153 ft | 144 kts | 304° |
| 2026-04-20 15:06 | 46.16544 | 14.57125 | 2951 ft | 146 kts | 305° |
| 2026-04-20 15:07 | 46.17163 | 14.55906 | 2752 ft | 155 kts | 307° |
| 2026-04-20 15:07 | 46.17822 | 14.54631 | 2546 ft | 161 kts | 308° |
| 2026-04-20 15:07 | 46.18493 | 14.53311 | 2320 ft | 164 kts | 307° |
| 2026-04-20 15:07 | 46.19164 | 14.51967 | 2013 ft | 165 kts | 307° |
| 2026-04-20 15:08 | 46.19857 | 14.50641 | 1728 ft | 165 kts | 307° |
| 2026-04-20 15:08 | 46.20548 | 14.49325 | 1543 ft | 163 kts | 306° |
| 2026-04-20 15:08 | 46.21211 | 14.48023 | 1368 ft | 156 kts | 306° |
| 2026-04-20 15:08 | 46.21826 | 14.46827 | 1219 ft | 132 kts | 306° |
| 2026-04-20 15:09 | 46.22258 | 14.45977 | 1241 ft | 82 kts | 307° |
| 2026-04-20 15:09 | 46.22512 | 14.45510 | 1250 ft | 45 kts | 320° |
| 2026-04-20 15:09 | 46.22711 | 14.45344 | 1262 ft | 19 kts | 342° |
| 2026-04-20 15:09 | 46.22794 | 14.45323 | 1256 ft | 5 kts | 351° |
| 2026-04-20 15:10 | 46.22828 | 14.45317 | 1261 ft | 5 kts | 358° |
| 2026-04-20 15:10 | 46.22867 | 14.45339 | 1261 ft | 8 kts | 38° |
| 2026-04-20 15:10 | 46.22914 | 14.45390 | 1256 ft | 9 kts | 37° |
| 2026-04-20 15:10 | 46.22961 | 14.45390 | 1259 ft | 8 kts | 316° |
| 2026-04-20 15:11 | 46.22996 | 14.45324 | 1263 ft | 9 kts | 307° |
| 2026-04-20 15:11 | 46.23020 | 14.45277 | 1259 ft | 9 kts | 306° |
| 2026-04-20 15:11 | 46.23059 | 14.45202 | 1257 ft | 10 kts | 306° |
| 2026-04-20 15:11 | 46.23101 | 14.45119 | 1257 ft | 9 kts | 306° |
| 2026-04-20 15:12 | 46.23113 | 14.45096 | 1261 ft | 0 kts | 306° |
| 2026-04-20 15:12 | 46.23121 | 14.45085 | 1266 ft | 2 kts | 329° |
| 2026-04-20 15:12 | 46.23136 | 14.45087 | 1258 ft | 3 kts | 19° |
| 2026-04-20 15:12 | 46.23156 | 14.45106 | 1261 ft | 3 kts | 37° |
| 2026-04-20 15:13 | 46.23169 | 14.45120 | 1259 ft | 2 kts | 36° |
| 2026-04-20 15:13 | 46.23176 | 14.45127 | 1260 ft | 0 kts | 36° |
| 2026-04-20 15:13 | 46.23178 | 14.45129 | 1259 ft | 0 kts | 36° |